Time;durP1;ratioP1;P1;durP2;ratioP2;P2;SDS_P1;SDS_P2;PMS_P1;PMS_P2;Temp;Humidity;BMP_temperature;BMP_pressure;BME280_temperature;BME280_humidity;BME280_pressure;Samples;Min_cycle;Max_cycle;Signal;HPM_P1;HPM_P2
2023/06/20 00:00:48;;;;;;;4.40;3.97;;;19.50;25.70;;;;;;5033002;28;20877;-76
2023/06/20 00:03:15;;;;;;;4.28;3.97;;;19.40;16.70;;;;;;5018558;28;20229;-76
2023/06/20 00:05:40;;;;;;;5.03;4.63;;;19.30;37.90;;;;;;5033690;28;20199;-75
2023/06/20 00:08:06;;;;;;;5.15;4.75;;;19.20;83.40;;;;;;5034626;28;20187;-76
2023/06/20 00:10:32;;;;;;;5.35;5.05;;;19.10;99.90;;;;;;5018879;28;20174;-75
2023/06/20 00:12:59;;;;;;;6.00;5.50;;;19.20;99.90;;;;;;5028630;28;20190;-77
2023/06/20 00:15:28;;;;;;;5.57;5.25;;;19.20;99.90;;;;;;5036244;28;20198;-76
2023/06/20 00:17:55;;;;;;;6.13;5.55;;;19.20;99.90;;;;;;5034055;28;20186;-75
2023/06/20 00:20:21;;;;;;;5.35;4.95;;;19.10;99.90;;;;;;5034444;28;20292;-74
2023/06/20 00:22:50;;;;;;;5.90;5.40;;;19.00;99.90;;;;;;5033839;28;20210;-75
2023/06/20 00:25:16;;;;;;;5.38;4.97;;;19.00;99.90;;;;;;5035391;28;20178;-75
2023/06/20 00:27:42;;;;;;;5.50;5.10;;;18.90;99.90;;;;;;5031691;28;20179;-75
2023/06/20 00:30:08;;;;;;;5.70;5.30;;;18.90;99.90;;;;;;5032490;28;20806;-75
2023/06/20 00:32:33;;;;;;;5.05;4.55;;;18.90;99.90;;;;;;5019214;28;20179;-74
2023/06/20 00:35:00;;;;;;;5.60;5.20;;;18.90;99.90;;;;;;5031819;28;20534;-75
2023/06/20 00:37:26;;;;;;;5.30;4.90;;;18.80;99.90;;;;;;5033100;28;20210;-74
2023/06/20 00:39:52;;;;;;;5.03;4.63;;;18.90;99.90;;;;;;5033408;28;20187;-74
2023/06/20 00:42:19;;;;;;;5.00;4.60;;;18.90;99.90;;;;;;5035634;28;20632;-76
2023/06/20 00:44:45;;;;;;;4.80;4.50;;;18.90;99.90;;;;;;5032929;28;20195;-76
2023/06/20 00:47:14;;;;;;;5.22;4.90;;;18.70;99.90;;;;;;5033922;28;20640;-75
2023/06/20 00:49:40;;;;;;;5.15;4.65;;;18.70;99.90;;;;;;5011970;28;20618;-74
2023/06/20 00:52:06;;;;;;;4.70;4.30;;;18.60;99.90;;;;;;5030066;28;20182;-74
2023/06/20 00:54:32;;;;;;;5.00;4.47;;;18.60;99.90;;;;;;5032705;28;20542;-75
2023/06/20 00:56:57;;;;;;;4.55;4.13;;;18.60;99.90;;;;;;5034292;28;20221;-76
2023/06/20 00:59:23;;;;;;;5.00;4.57;;;18.40;99.90;;;;;;5032572;28;20572;-75
2023/06/20 01:01:49;;;;;;;5.28;4.43;;;18.20;99.90;;;;;;5037076;28;20210;-75
2023/06/20 01:04:14;;;;;;;6.43;4.13;;;18.10;99.90;;;;;;5035567;28;20179;-75
2023/06/20 01:06:48;;;;;;;5.10;3.92;;;17.90;1.00;;;;;;5031452;28;20248;-75
2023/06/20 01:09:34;;;;;;;4.18;3.88;;;17.90;1.00;;;;;;5012287;28;20268;-74
2023/06/20 01:12:26;;;;;;;4.70;4.30;;;17.90;1.00;;;;;;5039792;28;20269;-74
2023/06/20 01:15:07;;;;;;;4.38;3.92;;;18.00;1.00;;;;;;5022892;28;20183;-74
2023/06/20 01:17:50;;;;;;;4.85;4.00;;;18.10;1.00;;;;;;5038478;28;20277;-73
2023/06/20 01:20:43;;;;;;;4.65;4.25;;;18.20;1.00;;;;;;5040334;28;20187;-75
2023/06/20 01:23:13;;;;;;;4.78;3.83;;;18.20;1.00;;;;;;5037641;28;20312;-74
2023/06/20 01:25:54;;;;;;;6.00;4.47;;;18.30;99.90;;;;;;5039159;28;20202;-76
2023/06/20 01:28:41;;;;;;;4.20;3.90;;;18.20;99.90;;;;;;5041503;28;20193;-75
2023/06/20 01:31:12;;;;;;;4.20;3.80;;;18.20;1.00;;;;;;5032497;28;20187;-75
2023/06/20 01:33:51;;;;;;;4.90;3.65;;;18.20;99.90;;;;;;5038372;28;20186;-75
2023/06/20 01:36:20;;;;;;;4.20;3.80;;;18.20;99.90;;;;;;5035860;28;20537;-76
2023/06/20 01:38:49;;;;;;;4.60;4.20;;;18.20;99.90;;;;;;5036979;28;20238;-76
2023/06/20 01:41:21;;;;;;;4.35;4.05;;;18.10;99.90;;;;;;5036123;28;20238;-75
2023/06/20 01:43:49;;;;;;;4.43;4.13;;;18.20;99.90;;;;;;5016155;28;20230;-75
2023/06/20 01:46:16;;;;;;;5.65;3.80;;;18.20;99.90;;;;;;5036698;28;20269;-75
2023/06/20 01:48:43;;;;;;;4.47;4.07;;;18.20;99.90;;;;;;5040793;28;20206;-75
2023/06/20 01:51:09;;;;;;;4.20;3.75;;;18.20;99.90;;;;;;5031949;28;20175;-75
2023/06/20 01:53:37;;;;;;;4.30;4.00;;;18.20;99.90;;;;;;5041707;28;20202;-76
2023/06/20 01:56:04;;;;;;;3.80;3.50;;;18.20;99.90;;;;;;5017154;28;20209;-76
2023/06/20 01:58:31;;;;;;;4.65;3.50;;;18.20;99.90;;;;;;5036048;28;20218;-75
2023/06/20 02:00:58;;;;;;;4.53;3.67;;;18.10;99.90;;;;;;5040631;28;20195;-75
2023/06/20 02:03:28;;;;;;;3.83;3.50;;;18.10;99.90;;;;;;5035500;28;20273;-76
2023/06/20 02:05:56;;;;;;;4.35;4.00;;;18.10;99.90;;;;;;5039073;28;20202;-77
2023/06/20 02:08:24;;;;;;;4.10;3.65;;;18.10;99.90;;;;;;5042249;28;20194;-76
2023/06/20 02:10:50;;;;;;;3.92;3.67;;;18.20;99.90;;;;;;5037022;28;20194;-75
2023/06/20 02:13:16;;;;;;;4.80;3.72;;;18.10;99.90;;;;;;5036555;28;20202;-75
2023/06/20 02:15:42;;;;;;;3.88;3.58;;;18.10;99.90;;;;;;5037682;28;20781;-75
2023/06/20 02:18:08;;;;;;;4.20;3.78;;;18.20;99.90;;;;;;5035267;28;20653;-76
2023/06/20 02:20:34;;;;;;;4.07;3.70;;;18.20;99.90;;;;;;5033442;28;20201;-75
2023/06/20 02:23:07;;;;;;;4.78;4.38;;;18.20;99.90;;;;;;5038982;28;20233;-75
2023/06/20 02:25:35;;;;;;;5.00;4.60;;;18.20;99.90;;;;;;5038155;28;20661;-76
2023/06/20 02:28:02;;;;;;;4.60;4.30;;;18.30;99.90;;;;;;5033102;28;20198;-75
2023/06/20 02:30:30;;;;;;;4.57;4.20;;;18.30;99.90;;;;;;5037363;28;20179;-76
2023/06/20 02:32:58;;;;;;;4.68;4.38;;;18.30;99.90;;;;;;5037395;28;20194;-76
2023/06/20 02:35:25;;;;;;;4.50;4.07;;;18.30;99.90;;;;;;5021898;28;20190;-76
2023/06/20 02:37:54;;;;;;;3.63;3.42;;;18.30;99.90;;;;;;5016911;28;20186;-75
2023/06/20 02:40:23;;;;;;;3.88;3.53;;;18.30;99.90;;;;;;5037128;28;20264;-76
2023/06/20 02:42:49;;;;;;;4.35;3.65;;;18.20;99.90;;;;;;5023404;28;20293;-77
2023/06/20 02:45:15;;;;;;;4.63;4.22;;;18.20;99.90;;;;;;5036204;28;20269;-76
2023/06/20 02:47:56;;;;;;;4.47;3.95;;;18.20;99.90;;;;;;5035958;28;20183;-76
2023/06/20 02:50:41;;;;;;;5.35;4.40;;;18.00;99.90;;;;;;5019513;28;20214;-76
2023/06/20 02:53:18;;;;;;;5.10;3.72;;;18.10;99.90;;;;;;5031946;28;20595;-76
2023/06/20 02:56:08;;;;;;;4.63;4.22;;;18.10;99.90;;;;;;5035978;28;20213;-77
2023/06/20 02:58:35;;;;;;;4.55;4.15;;;18.20;99.90;;;;;;5038233;28;20687;-76
2023/06/20 03:01:02;;;;;;;4.57;4.18;;;18.30;99.90;;;;;;5020327;28;20194;-76
2023/06/20 03:03:35;;;;;;;4.03;3.70;;;18.20;99.90;;;;;;5041142;28;20665;-76
2023/06/20 03:06:02;;;;;;;4.88;4.03;;;18.30;99.90;;;;;;5014408;28;20293;-75
2023/06/20 03:08:30;;;;;;;4.80;4.40;;;18.20;99.90;;;;;;5036506;28;20295;-77
2023/06/20 03:10:57;;;;;;;4.53;4.13;;;18.20;99.90;;;;;;5034996;28;20261;-76
2023/06/20 03:13:23;;;;;;;5.07;4.65;;;18.20;99.90;;;;;;5016920;28;20729;-76
2023/06/20 03:15:49;;;;;;;4.50;4.10;;;18.40;99.90;;;;;;5036559;28;20217;-76
2023/06/20 03:18:17;;;;;;;5.22;4.82;;;18.20;99.90;;;;;;5036312;28;20179;-76
2023/06/20 03:20:43;;;;;;;4.75;4.45;;;18.30;99.90;;;;;;5036104;28;20755;-76
2023/06/20 03:23:09;;;;;;;4.47;4.07;;;18.30;99.90;;;;;;5034636;28;20701;-76
2023/06/20 03:25:35;;;;;;;6.03;5.32;;;18.30;99.90;;;;;;5014451;28;20197;-76
2023/06/20 03:28:00;;;;;;;6.00;5.40;;;18.30;99.90;;;;;;5039717;28;20232;-75
2023/06/20 03:30:26;;;;;;;5.03;4.63;;;18.40;99.90;;;;;;5032257;28;20366;-76
2023/06/20 03:32:52;;;;;;;5.00;4.60;;;18.60;99.90;;;;;;5036173;28;20178;-76
2023/06/20 03:35:17;;;;;;;5.30;4.82;;;18.50;99.90;;;;;;5033873;28;20179;-76
2023/06/20 03:37:43;;;;;;;6.78;5.30;;;18.50;99.90;;;;;;5038974;28;20531;-76
2023/06/20 03:40:09;;;;;;;5.18;4.78;;;18.50;99.90;;;;;;5035140;28;20209;-77
2023/06/20 03:42:35;;;;;;;5.80;5.35;;;18.60;99.90;;;;;;5036729;28;20224;-76
2023/06/20 03:45:00;;;;;;;5.68;5.18;;;18.60;99.90;;;;;;5029016;28;20198;-76
2023/06/20 03:47:26;;;;;;;5.78;5.18;;;18.60;99.90;;;;;;5037448;28;20635;-77
2023/06/20 03:49:51;;;;;;;5.20;4.80;;;18.60;99.90;;;;;;5038102;28;20321;-77
2023/06/20 03:52:17;;;;;;;7.70;4.60;;;18.60;99.90;;;;;;5036680;28;20190;-76
2023/06/20 03:54:43;;;;;;;5.70;5.20;;;18.50;99.90;;;;;;5039721;28;20182;-76
2023/06/20 03:57:08;;;;;;;6.05;5.45;;;18.30;99.90;;;;;;5033546;28;20211;-77
2023/06/20 03:59:34;;;;;;;6.35;5.20;;;18.30;99.90;;;;;;5034679;28;20194;-75
2023/06/20 04:01:59;;;;;;;5.53;5.22;;;18.40;99.90;;;;;;5037522;28;20209;-76
2023/06/20 04:04:25;;;;;;;5.57;5.18;;;18.60;99.90;;;;;;5032658;28;20186;-76
2023/06/20 04:06:51;;;;;;;5.25;4.78;;;18.70;99.90;;;;;;5037420;28;20215;-76
2023/06/20 04:09:17;;;;;;;6.55;5.43;;;18.80;99.90;;;;;;5036110;28;20187;-76
2023/06/20 04:11:43;;;;;;;5.80;5.30;;;18.90;99.90;;;;;;5029090;28;20175;-76
2023/06/20 04:14:09;;;;;;;5.20;4.75;;;19.10;99.90;;;;;;5017383;28;20415;-76
2023/06/20 04:16:35;;;;;;;5.03;4.50;;;19.30;97.40;;;;;;5017421;28;20293;-75
2023/06/20 04:19:01;;;;;;;5.05;4.75;;;19.40;86.30;;;;;;5017303;28;21236;-75
2023/06/20 04:21:26;;;;;;;5.70;5.10;;;19.50;78.30;;;;;;5035139;28;20274;-77
2023/06/20 04:23:52;;;;;;;4.97;4.57;;;19.60;37.20;;;;;;5034631;28;20191;-76
2023/06/20 04:26:18;;;;;;;5.43;5.03;;;19.70;21.50;;;;;;5017777;28;20198;-76
2023/06/20 04:28:43;;;;;;;5.00;4.50;;;19.70;20.70;;;;;;5018007;28;20186;-74
2023/06/20 04:31:11;;;;;;;6.05;5.22;;;19.80;8.90;;;;;;5035038;28;20190;-78
2023/06/20 04:33:43;;;;;;;5.47;5.07;;;19.90;2.00;;;;;;5034720;28;20281;-78
2023/06/20 04:36:13;;;;;;;7.22;6.22;;;19.80;10.40;;;;;;5017934;28;20213;-78
2023/06/20 04:38:39;;;;;;;5.20;4.80;;;19.80;42.80;;;;;;5036337;28;20183;-76
2023/06/20 04:41:05;;;;;;;5.65;5.10;;;19.80;69.40;;;;;;5018126;28;20187;-75
2023/06/20 04:43:31;;;;;;;9.02;6.75;;;19.90;56.40;;;;;;5035915;28;20218;-75
2023/06/20 04:45:57;;;;;;;7.80;7.10;;;20.00;83.20;;;;;;5037508;28;20639;-75
2023/06/20 04:48:35;;;;;;;5.82;5.22;;;20.10;96.10;;;;;;5038854;28;20253;-76
2023/06/20 04:51:01;;;;;;;6.53;6.13;;;20.30;61.40;;;;;;5040041;28;20668;-75
2023/06/20 04:53:27;;;;;;;8.02;6.72;;;20.40;47.00;;;;;;5035885;28;20552;-75
2023/06/20 04:55:54;;;;;;;8.18;7.53;;;20.50;67.90;;;;;;5040265;28;20221;-77
2023/06/20 04:58:20;;;;;;;8.52;7.75;;;20.60;86.90;;;;;;5038782;28;20179;-76
2023/06/20 05:00:45;;;;;;;7.18;6.38;;;20.60;20.60;;;;;;5041164;28;20235;-74
2023/06/20 05:03:11;;;;;;;8.52;7.70;;;20.70;38.10;;;;;;5023036;28;20198;-76
2023/06/20 05:05:37;;;;;;;8.13;7.38;;;20.70;50.80;;;;;;5036816;28;20677;-79
2023/06/20 05:08:02;;;;;;;8.80;8.00;;;20.70;41.50;;;;;;5018718;28;20653;-75
2023/06/20 05:10:28;;;;;;;9.10;8.30;;;20.70;57.90;;;;;;5032957;28;20743;-76
2023/06/20 05:12:54;;;;;;;8.10;7.50;;;20.80;59.10;;;;;;5039870;28;20252;-76
2023/06/20 05:15:23;;;;;;;9.23;8.35;;;20.80;58.30;;;;;;5034344;28;20723;-75
2023/06/20 05:17:52;;;;;;;8.90;8.00;;;20.70;94.20;;;;;;5032620;28;20179;-75
2023/06/20 05:20:19;;;;;;;9.10;8.40;;;20.70;99.90;;;;;;5037663;28;20186;-77
2023/06/20 05:22:44;;;;;;;7.38;6.68;;;20.70;99.90;;;;;;5034306;28;20900;-75
2023/06/20 05:25:10;;;;;;;10.65;9.65;;;20.60;99.90;;;;;;5036302;28;20197;-75
2023/06/20 05:27:36;;;;;;;8.82;8.02;;;20.60;99.90;;;;;;5038127;28;20182;-75
2023/06/20 05:30:02;;;;;;;9.60;8.80;;;20.60;99.90;;;;;;5042880;28;20194;-75
2023/06/20 05:32:27;;;;;;;8.30;7.60;;;20.50;99.90;;;;;;5032942;28;20187;-75
2023/06/20 05:34:53;;;;;;;8.45;7.85;;;20.60;99.90;;;;;;5033478;28;20201;-75
2023/06/20 05:37:19;;;;;;;10.02;9.13;;;20.60;99.90;;;;;;5018192;28;20206;-76
2023/06/20 05:39:45;;;;;;;9.70;8.90;;;20.50;99.90;;;;;;5037422;28;20179;-76
2023/06/20 05:42:10;;;;;;;9.90;8.95;;;20.50;99.90;;;;;;5037457;28;20595;-76
2023/06/20 05:44:36;;;;;;;10.60;9.70;;;20.50;99.90;;;;;;5036989;28;20285;-76
2023/06/20 05:47:05;;;;;;;10.23;9.30;;;20.40;99.90;;;;;;5039018;28;20216;-75
2023/06/20 05:49:31;;;;;;;10.35;9.55;;;20.40;99.90;;;;;;5037238;28;20183;-79
2023/06/20 05:51:57;;;;;;;9.93;9.00;;;20.20;99.90;;;;;;5041426;28;20186;-76
2023/06/20 05:54:24;;;;;;;9.77;8.95;;;20.20;99.90;;;;;;5036439;28;20174;-75
2023/06/20 05:56:50;;;;;;;9.93;9.13;;;20.20;99.90;;;;;;5039351;28;20205;-77
2023/06/20 05:59:16;;;;;;;9.25;8.45;;;20.20;99.90;;;;;;5036908;28;20399;-76
2023/06/20 06:01:42;;;;;;;10.32;9.57;;;20.20;99.90;;;;;;5041005;28;20207;-75
2023/06/20 06:04:07;;;;;;;9.80;9.00;;;20.20;99.90;;;;;;5040785;28;20186;-79
2023/06/20 06:06:33;;;;;;;10.38;9.48;;;20.20;99.90;;;;;;5038309;28;20596;-75
2023/06/20 06:08:59;;;;;;;10.45;9.55;;;20.20;99.90;;;;;;5036756;28;20186;-76
2023/06/20 06:11:25;;;;;;;10.13;9.25;;;20.20;99.90;;;;;;5035815;28;20230;-78
2023/06/20 06:13:51;;;;;;;11.15;10.15;;;20.20;99.90;;;;;;5036104;28;20230;-76
2023/06/20 06:16:17;;;;;;;12.23;11.23;;;20.10;99.90;;;;;;5038535;28;20202;-76
2023/06/20 06:18:43;;;;;;;12.75;11.65;;;20.00;99.90;;;;;;5038531;28;20175;-76
2023/06/20 06:21:09;;;;;;;13.43;12.18;;;20.00;99.90;;;;;;5036865;28;20281;-75
2023/06/20 06:23:34;;;;;;;14.98;13.48;;;19.90;1.00;;;;;;5020081;28;20209;-77
2023/06/20 06:26:00;;;;;;;16.45;14.75;;;19.80;1.00;;;;;;5040360;28;20202;-76
2023/06/20 06:28:28;;;;;;;13.55;12.35;;;19.80;99.90;;;;;;5037931;28;20611;-75
2023/06/20 06:30:59;;;;;;;13.50;12.15;;;19.80;99.90;;;;;;5036584;28;20183;-76
2023/06/20 06:33:25;;;;;;;14.68;13.27;;;19.70;99.90;;;;;;5028190;28;20181;-75
2023/06/20 06:35:51;;;;;;;13.88;11.70;;;19.70;99.90;;;;;;5036367;28;20237;-77
2023/06/20 06:38:17;;;;;;;16.45;14.98;;;19.60;1.00;;;;;;5034103;28;20225;-75
2023/06/20 06:40:46;;;;;;;14.65;13.45;;;19.70;99.90;;;;;;5030122;28;20202;-74
2023/06/20 06:43:12;;;;;;;16.70;15.15;;;19.70;1.00;;;;;;5027367;28;20210;-79
2023/06/20 06:45:37;;;;;;;15.70;14.15;;;19.70;1.00;;;;;;5026871;28;20281;-78
2023/06/20 06:48:04;;;;;;;16.60;14.95;;;19.70;1.00;;;;;;5033786;28;20214;-75
2023/06/20 06:50:29;;;;;;;14.85;13.27;;;19.70;1.00;;;;;;5041555;28;20186;-75
2023/06/20 06:52:55;;;;;;;17.02;15.65;;;19.70;1.00;;;;;;5026031;28;20183;-77
2023/06/20 06:55:21;;;;;;;19.05;17.25;;;19.50;1.00;;;;;;5013779;28;20273;-76
2023/06/20 06:57:46;;;;;;;20.90;18.90;;;19.30;1.00;;;;;;5034988;28;20414;-76
2023/06/20 07:00:14;;;;;;;19.33;17.65;;;19.20;99.90;;;;;;5032811;28;20190;-79
2023/06/20 07:02:44;;;;;;;18.23;16.70;;;19.00;99.90;;;;;;5035164;28;20230;-77
2023/06/20 07:05:10;;;;;;;21.65;19.65;;;19.00;1.00;;;;;;5034546;28;20183;-75
2023/06/20 07:07:36;;;;;;;16.27;14.77;;;19.00;99.90;;;;;;5034370;28;20186;-75
2023/06/20 07:10:02;;;;;;;18.70;17.00;;;18.90;1.00;;;;;;5018506;28;20184;-74
2023/06/20 07:12:27;;;;;;;18.63;16.98;;;19.00;99.90;;;;;;5037846;28;20186;-78
2023/06/20 07:14:56;;;;;;;18.88;17.13;;;19.00;1.00;;;;;;5035957;28;20236;-75
2023/06/20 07:17:23;;;;;;;17.52;15.82;;;19.00;43.40;;;;;;5035608;28;20197;-77
2023/06/20 07:19:49;;;;;;;18.90;17.23;;;19.10;99.90;;;;;;5035255;28;20617;-77
2023/06/20 07:22:15;;;;;;;16.75;15.25;;;19.10;99.90;;;;;;5035689;28;20233;-79
2023/06/20 07:24:40;;;;;;;17.35;15.95;;;19.10;1.00;;;;;;5035797;28;20198;-78
2023/06/20 07:27:06;;;;;;;17.95;16.35;;;19.20;99.90;;;;;;5033788;28;20233;-78
2023/06/20 07:29:32;;;;;;;20.40;18.60;;;19.30;34.60;;;;;;5033583;28;20236;-77
2023/06/20 07:31:58;;;;;;;18.02;16.33;;;19.30;99.90;;;;;;5036773;28;20225;-78
2023/06/20 07:34:24;;;;;;;18.17;16.77;;;19.30;99.90;;;;;;5035770;28;20611;-75
2023/06/20 07:36:50;;;;;;;19.60;17.95;;;19.40;1.00;;;;;;5038930;28;20217;-75
2023/06/20 07:39:15;;;;;;;15.57;14.27;;;19.50;1.00;;;;;;5015107;28;20183;-74
2023/06/20 07:41:41;;;;;;;17.52;16.02;;;19.60;99.90;;;;;;5034705;28;20183;-74
2023/06/20 07:44:08;;;;;;;18.15;16.65;;;19.80;99.90;;;;;;5032658;28;20285;-75
2023/06/20 07:46:33;;;;;;;18.80;17.30;;;20.00;99.90;;;;;;5034939;28;20283;-76
2023/06/20 07:48:59;;;;;;;17.27;15.80;;;20.00;99.90;;;;;;5034988;28;20673;-74
2023/06/20 07:51:25;;;;;;;18.02;16.63;;;20.10;99.90;;;;;;5034549;28;20183;-77
2023/06/20 07:53:50;;;;;;;19.38;17.70;;;20.20;99.90;;;;;;5037377;28;20189;-77
2023/06/20 07:56:16;;;;;;;19.17;17.58;;;20.10;99.90;;;;;;5035697;28;20694;-74
2023/06/20 07:58:44;;;;;;;19.73;18.02;;;20.10;1.00;;;;;;5032575;28;20183;-75
2023/06/20 08:01:12;;;;;;;20.63;18.92;;;20.20;99.90;;;;;;5036554;28;20305;-74
2023/06/20 08:03:38;;;;;;;18.92;17.33;;;20.30;1.00;;;;;;5033049;28;20672;-74
2023/06/20 08:06:04;;;;;;;19.42;17.88;;;20.20;1.00;;;;;;5032737;28;20221;-74
2023/06/20 08:08:29;;;;;;;20.02;18.38;;;20.20;1.00;;;;;;5033416;28;20189;-74
2023/06/20 08:10:55;;;;;;;18.42;16.92;;;20.30;99.90;;;;;;5033636;28;20213;-74
2023/06/20 08:13:20;;;;;;;20.67;18.88;;;20.60;1.00;;;;;;5028787;28;20182;-75
2023/06/20 08:15:46;;;;;;;21.05;19.35;;;20.80;99.90;;;;;;5031384;28;20222;-74
2023/06/20 08:18:12;;;;;;;19.88;18.27;;;20.70;99.90;;;;;;5032129;28;20232;-74
2023/06/20 08:20:37;;;;;;;19.00;17.55;;;21.00;99.90;;;;;;5026885;28;20210;-74
2023/06/20 08:23:03;;;;;;;18.35;16.85;;;21.30;99.90;;;;;;5026671;28;20218;-74
2023/06/20 08:25:29;;;;;;;18.15;16.75;;;21.30;1.00;;;;;;5035391;28;20206;-73
2023/06/20 08:27:54;;;;;;;19.05;17.55;;;21.90;99.90;;;;;;5025984;28;20179;-74
2023/06/20 08:30:20;;;;;;;17.63;16.23;;;22.00;99.90;;;;;;5026813;28;20658;-74
2023/06/20 08:32:47;;;;;;;17.38;15.95;;;22.30;63.90;;;;;;5028648;28;20189;-74
2023/06/20 08:35:13;;;;;;;16.52;15.23;;;22.30;1.00;;;;;;5026795;28;20190;-73
2023/06/20 08:37:40;;;;;;;15.63;14.27;;;22.60;1.00;;;;;;5024442;28;20695;-75
2023/06/20 08:40:09;;;;;;;14.90;13.80;;;22.90;99.90;;;;;;5026404;28;20200;-74
2023/06/20 08:42:35;;;;;;;14.68;13.45;;;22.70;1.00;;;;;;5011452;28;20203;-75
2023/06/20 08:45:01;;;;;;;13.15;12.10;;;22.70;1.00;;;;;;5028083;28;20201;-74
2023/06/20 08:47:27;;;;;;;13.02;11.82;;;23.10;1.00;;;;;;5033147;28;20206;-75
2023/06/20 08:49:52;;;;;;;13.02;12.02;;;23.40;99.90;;;;;;5027777;28;20186;-74
2023/06/20 08:52:26;;;;;;;12.20;11.30;;;23.30;1.00;;;;;;5034928;28;20326;-75
2023/06/20 08:54:52;;;;;;;11.38;10.48;;;23.50;99.90;;;;;;5035256;28;20186;-75
2023/06/20 08:57:18;;;;;;;11.00;10.00;;;23.60;99.90;;;;;;5035004;28;21020;-76
2023/06/20 08:59:44;;;;;;;10.10;9.35;;;23.70;99.90;;;;;;5032305;28;20178;-75
2023/06/20 09:02:11;;;;;;;9.98;9.25;;;23.70;99.90;;;;;;5036764;28;20284;-74
2023/06/20 09:04:36;;;;;;;9.75;9.05;;;23.70;99.90;;;;;;5013314;28;21308;-75
2023/06/20 09:07:13;;;;;;;9.98;9.18;;;24.00;99.90;;;;;;5035595;28;20209;-75
2023/06/20 09:09:39;;;;;;;9.77;8.88;;;24.10;99.90;;;;;;5031640;28;20282;-73
2023/06/20 09:12:07;;;;;;;10.07;9.13;;;24.00;97.50;;;;;;5032773;28;20189;-74
2023/06/20 09:14:32;;;;;;;9.30;8.60;;;24.20;78.50;;;;;;5031386;28;20197;-75
2023/06/20 09:17:00;;;;;;;9.07;8.38;;;24.00;86.50;;;;;;5032430;28;20214;-74
2023/06/20 09:19:25;;;;;;;9.63;8.82;;;24.00;99.90;;;;;;5031453;28;20261;-75
2023/06/20 09:21:51;;;;;;;9.75;9.00;;;24.30;85.50;;;;;;5012482;28;20679;-75
2023/06/20 09:24:21;;;;;;;9.60;8.90;;;24.30;64.20;;;;;;5032083;28;20186;-75
2023/06/20 09:26:49;;;;;;;9.95;9.25;;;24.00;19.10;;;;;;5013604;28;20209;-75
2023/06/20 09:29:17;;;;;;;10.13;9.23;;;23.70;42.50;;;;;;5029599;28;20183;-74
2023/06/20 09:31:50;;;;;;;11.55;10.65;;;24.00;50.90;;;;;;5029839;28;20179;-75
2023/06/20 09:34:18;;;;;;;9.52;8.82;;;23.70;37.70;;;;;;5033519;28;20254;-74
2023/06/20 09:36:47;;;;;;;8.98;8.32;;;23.70;99.90;;;;;;5020483;28;20218;-76
2023/06/20 09:39:17;;;;;;;9.70;8.90;;;24.20;94.80;;;;;;5032763;28;20175;-75
2023/06/20 09:41:47;;;;;;;10.13;9.32;;;24.50;24.90;;;;;;5025805;28;20221;-75
2023/06/20 09:44:13;;;;;;;10.35;9.55;;;24.90;1.00;;;;;;5032228;28;20209;-75
2023/06/20 09:46:40;;;;;;;10.63;9.85;;;24.80;1.00;;;;;;5027893;28;20568;-75
2023/06/20 09:49:06;;;;;;;10.13;9.32;;;25.00;1.00;;;;;;5028591;28;20651;-75
2023/06/20 09:51:41;;;;;;;11.35;10.30;;;24.60;1.00;;;;;;5029688;28;20187;-74
2023/06/20 09:54:12;;;;;;;10.07;9.30;;;24.60;6.40;;;;;;5028272;28;20597;-75
2023/06/20 09:56:48;;;;;;;9.65;8.95;;;24.90;1.00;;;;;;5034769;28;20214;-75
2023/06/20 09:59:15;;;;;;;9.38;8.68;;;24.90;1.00;;;;;;5027576;28;20233;-74
2023/06/20 10:01:42;;;;;;;11.02;10.05;;;25.00;1.00;;;;;;5034854;28;20179;-75
2023/06/20 10:04:08;;;;;;;9.68;8.98;;;24.30;1.00;;;;;;5029226;28;20190;-75
2023/06/20 10:06:37;;;;;;;9.38;8.75;;;24.40;1.00;;;;;;5032877;28;20693;-76
2023/06/20 10:09:09;;;;;;;8.02;7.40;;;24.40;1.00;;;;;;5028435;28;20642;-75
2023/06/20 10:11:38;;;;;;;8.80;8.10;;;24.40;1.00;;;;;;5014475;28;20182;-75
2023/06/20 10:14:04;;;;;;;7.70;7.10;;;24.30;16.90;;;;;;5031798;28;20719;-75
2023/06/20 10:16:30;;;;;;;8.85;8.15;;;24.50;1.00;;;;;;5025977;28;20468;-75
2023/06/20 10:18:56;;;;;;;8.68;8.07;;;24.60;1.00;;;;;;5032433;28;20190;-76
2023/06/20 10:22:00;;;;;;;8.68;8.07;;;25.20;2.60;;;;;;5036706;28;21034;-75
2023/06/20 10:24:28;;;;;;;8.25;7.70;;;25.50;1.00;;;;;;5035988;28;20178;-75
2023/06/20 10:26:59;;;;;;;8.23;7.63;;;25.50;1.00;;;;;;5014148;28;20213;-75
2023/06/20 10:29:25;;;;;;;8.35;7.75;;;25.40;1.00;;;;;;5034075;28;20555;-74
2023/06/20 10:32:05;;;;;;;8.80;8.20;;;25.30;1.00;;;;;;5036470;28;20240;-77
2023/06/20 10:34:39;;;;;;;8.75;8.05;;;25.50;1.00;;;;;;5033614;28;20244;-75
2023/06/20 10:37:13;;;;;;;8.45;7.82;;;25.70;1.00;;;;;;5035500;28;20292;-75
2023/06/20 10:39:49;;;;;;;9.50;8.70;;;25.50;1.00;;;;;;5013846;28;20649;-76
2023/06/20 10:42:30;;;;;;;8.32;7.72;;;25.20;1.00;;;;;;5032720;28;20666;-75
2023/06/20 10:45:25;;;;;;;8.73;8.10;;;24.90;1.00;;;;;;5030271;28;20225;-77
2023/06/20 10:47:52;;;;;;;8.30;7.70;;;24.80;1.00;;;;;;5035940;28;20185;-76
2023/06/20 10:50:19;;;;;;;8.10;7.50;;;24.70;1.00;;;;;;5038328;28;20186;-76
2023/06/20 10:52:45;;;;;;;7.65;7.15;;;25.00;1.00;;;;;;5020810;28;20182;-74
2023/06/20 10:55:24;;;;;;;6.78;6.28;;;25.30;1.00;;;;;;5034056;28;20245;-75
2023/06/20 10:57:50;;;;;;;7.35;6.85;;;25.30;1.00;;;;;;5032087;28;20281;-77
2023/06/20 11:00:18;;;;;;;7.57;7.07;;;25.30;1.00;;;;;;5034663;28;21035;-76
2023/06/20 11:02:51;;;;;;;6.82;6.32;;;25.50;1.00;;;;;;5038493;28;20285;-77
2023/06/20 11:05:17;;;;;;;6.95;6.45;;;25.60;1.00;;;;;;5033327;28;20178;-76
2023/06/20 11:07:55;;;;;;;6.60;6.10;;;25.90;1.00;;;;;;5032539;28;20205;-77
2023/06/20 11:10:32;;;;;;;7.15;6.65;;;26.20;1.00;;;;;;5035524;28;20690;-76
2023/06/20 11:13:00;;;;;;;7.93;6.18;;;26.00;1.00;;;;;;5032242;28;20199;-77
2023/06/20 11:15:32;;;;;;;6.40;5.97;;;26.00;1.00;;;;;;5034902;28;20178;-76
2023/06/20 11:18:06;;;;;;;6.43;5.95;;;26.20;1.00;;;;;;5033739;28;20190;-77
2023/06/20 11:20:39;;;;;;;6.43;5.93;;;26.20;1.00;;;;;;5035849;28;20681;-76
2023/06/20 11:23:13;;;;;;;6.75;5.90;;;26.00;1.00;;;;;;5025719;28;20213;-76
2023/06/20 11:25:41;;;;;;;7.00;6.30;;;25.70;1.00;;;;;;5033088;28;20226;-75
2023/06/20 11:28:12;;;;;;;6.22;5.60;;;25.50;1.00;;;;;;5034045;28;20274;-77
2023/06/20 11:30:41;;;;;;;5.05;4.75;;;25.70;1.00;;;;;;5034337;28;20646;-76
2023/06/20 11:33:12;;;;;;;5.78;5.28;;;25.70;1.00;;;;;;5031341;28;20206;-77
2023/06/20 11:35:52;;;;;;;6.15;5.45;;;26.00;1.00;;;;;;5037082;28;20204;-78
2023/06/20 11:38:25;;;;;;;6.10;5.60;;;26.00;1.00;;;;;;5036049;28;20206;-78
2023/06/20 11:41:06;;;;;;;5.63;5.13;;;26.00;1.00;;;;;;5037804;28;20190;-78
2023/06/20 11:43:39;;;;;;;5.45;5.05;;;26.10;1.00;;;;;;5033351;28;20381;-76
2023/06/20 11:46:06;;;;;;;6.32;5.78;;;26.10;1.00;;;;;;5024282;28;20639;-76
2023/06/20 11:48:32;;;;;;;5.80;5.40;;;25.70;1.00;;;;;;5033973;28;20175;-75
2023/06/20 11:51:00;;;;;;;6.07;5.55;;;25.90;1.00;;;;;;5031497;28;20181;-75
2023/06/20 11:53:35;;;;;;;5.65;5.20;;;25.80;1.00;;;;;;5016938;28;20183;-77
2023/06/20 11:56:07;;;;;;;5.35;4.97;;;25.80;1.00;;;;;;5013387;28;20715;-76
2023/06/20 11:58:37;;;;;;;6.05;5.65;;;25.70;1.00;;;;;;5036960;28;20295;-75
2023/06/20 12:01:09;;;;;;;5.57;5.18;;;25.90;1.00;;;;;;5035656;28;20261;-76
2023/06/20 12:03:39;;;;;;;5.78;5.32;;;26.00;1.00;;;;;;5032460;28;20234;-78
2023/06/20 12:06:28;;;;;;;7.00;6.40;;;26.10;1.00;;;;;;5033378;28;20190;-76
2023/06/20 12:08:57;;;;;;;6.53;6.03;;;26.00;1.00;;;;;;5031246;28;20179;-75
2023/06/20 12:11:23;;;;;;;6.88;6.28;;;26.10;1.00;;;;;;5035364;28;20166;-77
2023/06/20 12:13:49;;;;;;;7.65;6.95;;;26.10;1.00;;;;;;5034782;28;20309;-80
2023/06/20 12:16:15;;;;;;;6.07;5.57;;;26.00;1.00;;;;;;5034856;28;20314;-78
2023/06/20 12:18:41;;;;;;;6.32;5.93;;;26.00;1.00;;;;;;5033390;28;20186;-79
2023/06/20 12:21:07;;;;;;;6.72;6.22;;;26.00;1.00;;;;;;5031575;28;20195;-76
2023/06/20 12:23:34;;;;;;;6.18;5.38;;;25.90;1.00;;;;;;5033664;28;20210;-76
2023/06/20 12:26:00;;;;;;;5.40;5.00;;;26.00;1.00;;;;;;5027815;28;20206;-77
2023/06/20 12:28:25;;;;;;;5.40;5.00;;;26.10;1.00;;;;;;5031944;28;20194;-77
2023/06/20 12:30:51;;;;;;;6.60;5.05;;;26.10;1.00;;;;;;5034533;28;20642;-78
2023/06/20 12:33:18;;;;;;;8.95;5.50;;;26.30;1.00;;;;;;5035734;28;20189;-76
2023/06/20 12:35:43;;;;;;;7.05;5.25;;;26.30;1.00;;;;;;5035200;28;20302;-75
2023/06/20 12:38:10;;;;;;;5.97;5.57;;;26.30;1.00;;;;;;5036116;28;20182;-76
2023/06/20 12:40:36;;;;;;;5.93;5.53;;;26.50;1.00;;;;;;5035266;28;20652;-77
2023/06/20 12:43:02;;;;;;;5.60;5.20;;;26.60;1.00;;;;;;5032640;28;20622;-76
2023/06/20 12:45:28;;;;;;;5.88;5.38;;;26.80;1.00;;;;;;5035712;28;20281;-76
2023/06/20 12:47:54;;;;;;;6.15;5.65;;;26.80;1.00;;;;;;5036223;28;20733;-76
2023/06/20 12:50:20;;;;;;;5.78;5.28;;;26.70;1.00;;;;;;5037273;28;20222;-75